Weather observations for the past three days for
Farmville
Metric (Imperial)
Date Time (edt) Wind (kph) Vis. (km) Weather Sky Cond. Temperature (ºC) Relative Humidity Wind Chill (°C) Heat Index (°C) Pressure Precipitation (cm)
Air Dwpt 6 hour altimeter (cm) sea level (mb) 1 hr 3 hr 6 hr
Max. Min.
06 05:15 S 15 16.09 Fair CLR 18.6 14.1 75% 75.87 0.0
06 04:55 S 19 16.09 Fair CLR 18.6 14.2 76% 75.84 0.0
06 04:35 S 17 16.09 Fair CLR 18.7 14.3 76% 75.87 0.0
06 04:15 S 19 16.09 Partly Cloudy SCT100 19 14.4 75% 75.87 0.0
06 03:55 S 15 G 28 16.09 Partly Cloudy SCT100 19.1 14.5 75% 75.9 0.0
06 03:35 S 20 G 30 16.09 Fair CLR 19.4 14.4 73% 75.9 0.0
06 03:15 S 17 G 30 16.09 Fair CLR 19.4 14.5 73% 75.9 0.0
06 02:55 S 22 G 35 16.09 Fair CLR 19.7 14.3 71% 75.9 0.0
06 02:15 S 26 16.09 Fair CLR 20 14.3 70% 75.9 0.0
06 01:55 S 24 G 35 16.09 Fair CLR 20.5 14.3 24.8 20.1 68% 75.92 0.0
06 01:35 S 24 G 31 16.09 Fair CLR 20.3 14.1 68% 75.92 0.0
06 01:15 S 26 16.09 Fair CLR 20.5 14 66% 75.92 0.0
06 00:55 S 26 16.09 Fair CLR 20.5 14 66% 75.92 0.0
06 00:35 S 20 G 28 16.09 Fair CLR 20.6 13.7 65% 75.95 0.0
06 00:15 S 17 G 26 16.09 Fair CLR 20.5 13.6 65% 75.95 0.0
05 23:55 S 19 16.09 Fair CLR 20.7 13.3 63% 75.95 0.0
05 23:35 S 17 16.09 Fair CLR 20.6 13 62% 75.92 0.0
05 23:15 S 13 16.09 Fair CLR 20.2 12.7 62% 75.95 0.0
05 22:55 S 15 16.09 Fair CLR 20.6 12.7 61% 75.95 0.0
05 22:35 S 15 16.09 Fair CLR 20.5 12.5 60% 75.95 0.0
05 22:15 S 15 16.09 Partly Cloudy SCT080 20.5 12.3 59% 75.95 0.0
05 21:55 S 11 16.09 Partly Cloudy SCT080 20.5 12 58% 75.92 0.0
05 21:35 S 9 16.09 Fair CLR 21.1 11.6 55% 75.92 0.0
05 21:15 S 13 16.09 Fair CLR 22.1 11.6 52% 75.92 0.0
05 20:55 S 13 16.09 Fair CLR 23 11.6 49% 75.9 0.0
05 20:35 S 15 16.09 Fair CLR 22.7 11.6 50% 75.87 0.0
05 20:15 S 13 16.09 Fair CLR 23.2 11.4 48% 75.87 0.0
05 19:55 S 15 16.09 Partly Cloudy SCT080 24.9 11 29.6 24.9 42% 26 75.87 0.0
05 19:35 S 22 G 35 16.09 Partly Cloudy SCT080 25.8 10.8 39% 26 75.84 0.0
05 19:15 S 28 G 33 16.09 Partly Cloudy SCT080 26.1 10.9 39% 26 75.84 0.0
05 18:55 S 20 16.09 Fair CLR 26.6 10.8 37% 26 75.87 0.0
05 18:35 S 22 G 37 16.09 Fair CLR 27.6 10.7 35% 27 75.87 0.0
05 18:15 S 24 16.09 Fair CLR 27.2 10 34% 27 75.87 0.0
05 17:55 S 31 G 43 16.09 Fair CLR 27.2 9.2 32% 27 75.84 0.0
05 17:35 S 30 G 46 16.09 Fair CLR 28 9.1 31% 27 75.84 0.0
05 17:15 S 37 G 50 16.09 Fair and Breezy CLR 28.3 9.4 31% 27 75.84 0.0
05 16:55 SW 20 G 37 16.09 Fair CLR 28.1 10.3 33% 27 75.87 0.0
05 16:35 S 22 G 35 16.09 Fair CLR 28.1 10 32% 27 75.87 0.0
05 16:15 S 19 G 39 16.09 Fair CLR 28 10 32% 27 75.87 0.0
05 15:55 S 20 G 35 16.09 Fair CLR 28.4 9.6 31% 27 75.9 0.0
05 15:35 S 28 G 37 16.09 Fair CLR 29.2 10.1 30% 28 75.9 0.0
05 15:15 SW 24 G 35 16.09 Fair CLR 29 9.9 30% 28 75.92 0.0
05 14:55 S 28 G 39 16.09 Fair CLR 29.2 10.5 31% 28 75.92 0.0
05 14:35 S 20 G 37 16.09 Fair CLR 29.2 10 30% 28 75.95 0.0
05 14:15 Calm 0.00 NULL NULL 28.5 9.2 30% 27 0 0.0
05 13:55 S 30 G 43 16.09 Fair CLR 28.4 10.4 28.4 16 33% 28 76 0.0
05 13:35 SW 17 G 30 16.09 Fair CLR 27.6 10.9 35% 27 76 0.0
05 13:15 S 24 G 30 16.09 Fair CLR 27.5 11.9 38% 27 76.02 0.0
05 12:55 S 17 G 30 16.09 Fair CLR 27.1 12 39% 27 76.05 0.0
05 12:35 S 19 G 28 16.09 Fair CLR 26.5 12.2 41% 27 76.07 0.0
05 12:15 SW 17 G 26 16.09 Fair CLR 26.4 12.9 43% 27 76.07 0.0
05 11:55 S 17 16.09 Fair CLR 25.8 13.1 45% 26 76.1 0.0
05 11:35 SW 13 G 26 16.09 Fair CLR 25.3 12.9 46% 26 76.1 0.0
05 11:15 S 20 G 26 16.09 Fair CLR 24.4 12.9 49% 26 76.12 0.0
05 10:55 SW 11 16.09 Fair CLR 23.9 13 51% 25 76.12 0.0
05 10:35 S 15 16.09 Fair CLR 23 12.6 52% 76.1 0.0
05 10:15 S 13 16.09 Fair CLR 21.9 12.2 54% 76.1 0.0
05 09:55 S 17 16.09 Fair CLR 21.3 12.3 57% 76.1 0.0
05 09:35 S 17 16.09 Fair CLR 20.1 11.7 59% 76.1 0.0
05 09:15 SW 15 16.09 Fair CLR 19.5 11.7 61% 76.12 0.0
05 08:55 S 15 16.09 Fair CLR 18.7 11.5 63% 76.12 0.0
05 08:35 SW 17 16.09 Fair CLR 18.1 11.7 66% 76.12 0.0
05 08:15 S 13 16.09 Fair CLR 17.1 11.5 70% 76.12 0.0
05 07:55 S 13 16.09 Fair CLR 16 11.1 17.5 13.3 73% 76.12 0.0
05 07:35 S 11 16.09 Fair CLR 15.4 10.7 74% 76.1 0.0
05 07:15 SW 9 16.09 Fair CLR 14.1 10.2 78% 76.07 0.0
05 06:55 SW 6 16.09 Fair CLR 14 10 77% 76.05 0.0
05 06:35 SW 6 16.09 Fair CLR 13.5 9.9 79% 76.05 0.0
05 06:15 SW 7 16.09 Fair CLR 13.7 9.8 77% 76.05 0.0
05 05:55 SW 9 16.09 Fair CLR 13.9 10 78% 76.02 0.0
05 05:35 SW 9 16.09 Fair CLR 14.2 10 76% 76.02 0.0
05 05:15 SW 9 16.09 Fair CLR 13.3 9.6 78% 76.02 0.0
05 04:55 SW 7 16.09 Fair CLR 13.9 9.6 75% 76.02 0.0
05 04:35 S 7 16.09 Fair CLR 13.9 9.3 74% 76.02 0.0
05 04:15 S 6 16.09 Fair CLR 14.5 9.1 70% 76.02 0.0
05 03:55 Calm 16.09 Fair CLR 14.7 9 69% 76 0.0
05 03:35 S 6 16.09 Fair CLR 14.9 8.7 67% 76 0.0
05 03:15 S 7 16.09 Fair CLR 15.1 8.6 65% 75.97 0.0
05 02:55 Calm 16.09 Fair CLR 14.5 8.7 68% 75.97 0.0
05 02:35 S 6 16.09 Fair CLR 16.5 8.5 59% 75.97 0.0
05 02:15 S 7 16.09 Fair CLR 16.8 8.5 58% 75.97 0.0
05 01:55 SW 9 16.09 Fair CLR 17.2 8.4 22.2 14.7 56% 75.97 0.0
05 01:35 SW 11 16.09 Fair CLR 17.5 8.5 56% 75.97 0.0
05 01:15 S 13 16.09 Fair CLR 17 8.8 59% 75.97 0.0
05 00:55 SW 9 16.09 Fair CLR 17.1 9 59% 75.97 0.0
05 00:35 Calm 16.09 Fair CLR 15.3 9.6 69% 75.95 0.0
05 00:15 S 6 16.09 Fair CLR 16.4 9.7 65% 75.95 0.0
04 23:55 Calm 16.09 Fair CLR 14.9 9.9 72% 75.95 0.0
04 23:35 Calm 16.09 Fair CLR 15.9 10.1 69% 75.92 0.0
04 23:15 Calm 16.09 Fair CLR 16 10.1 68% 75.95 0.0
04 22:55 Calm 16.09 Fair CLR 17.6 10.2 62% 75.95 0.0
04 22:35 Calm 16.09 Fair CLR 18.5 10.2 59% 75.95 0.0
04 22:15 S 6 16.09 Fair CLR 18.6 10.2 58% 75.95 0.0
04 21:55 Calm 16.09 Fair CLR 19 10.3 57% 75.95 0.0
04 21:35 Calm 16.09 Fair CLR 19.5 10.1 55% 75.92 0.0
04 21:15 Calm 16.09 Fair CLR 19.7 10.1 54% 75.9 0.0
04 20:55 Calm 16.09 Fair CLR 20.6 10 51% 75.9 0.0
04 20:35 Calm 16.09 Fair CLR 20.9 10 50% 75.9 0.0
04 20:15 Calm 16.09 Fair CLR 21.3 10.9 52% 75.9 0.0
04 19:55 Calm 16.09 Fair CLR 22.4 10.7 26.6 22.4 48% 75.9 0.0
04 19:35 Calm 16.09 Partly Cloudy SCT120 22.6 10.6 47% 75.87 0.0
04 19:15 SW 6 16.09 Fair CLR 23.6 10 42% 75.87 0.0
04 18:55 SW 13 16.09 Fair CLR 24.1 10 41% 25 75.9 0.0
04 18:35 SW 11 16.09 Fair CLR 25.3 10.1 38% 26 75.87 0.0
04 18:15 S 15 16.09 Fair CLR 25.6 10.4 38% 26 75.9 0.0
04 17:55 S 17 16.09 Fair CLR 25.7 9.9 37% 26 75.9 0.0
04 17:35 SW 11 16.09 Fair CLR 25 9.3 37% 26 75.9 0.0
04 17:15 SW 15 16.09 Fair CLR 25.5 9.3 36% 26 75.87 0.0
04 16:55 SW 13 G 26 16.09 Fair CLR 25.2 8.6 35% 26 75.87 0.0
04 16:35 SW 11 G 33 16.09 Partly Cloudy SCT120 25.5 8.6 34% 26 75.87 0.0
04 16:15 SW 17 G 30 16.09 Mostly Cloudy BKN120 26.4 8.6 32% 26 75.9 0.0
04 15:55 S 26 G 35 16.09 Partly Cloudy SCT080 SCT120 26.3 8.3 32% 26 75.87 0.0
04 15:35 S 28 16.09 Partly Cloudy SCT080 25.6 8.2 33% 26 75.9 0.0
04 15:15 S 17 G 30 16.09 Fair CLR 26 7.5 31% 26 75.92 0.0
04 14:55 S 26 G 31 16.09 Fair CLR 25.8 8 32% 26 75.92 0.0
04 14:35 SW 13 16.09 Fair CLR 25.2 7.5 32% 26 75.97 0.0
04 14:15 S 17 16.09 Fair CLR 25 7.7 33% 25 76 0.0
04 13:55 S 13 16.09 Fair CLR 25 8.5 25 11.4 35% 26 76.02 0.0
04 13:35 SW 11 16.09 Fair CLR 23.8 6.9 34% 76.02 0.0
04 13:15 SW 9 16.09 Fair CLR 23.5 6.7 34% 76.05 0.0
04 12:55 SW 7 16.09 Fair CLR 23.5 7 35% 76.07 0.0
04 12:35 SW 11 16.09 Fair CLR 22.6 7.1 37% 76.1 0.0
04 12:15 SW 13 16.09 Fair CLR 21.5 7 39% 76.12 0.0
04 11:55 SW 11 16.09 Fair CLR 21.9 6.7 37% 76.15 0.0
04 11:35 S 13 16.09 Fair CLR 20.9 6.7 40% 76.15 0.0
04 11:15 SW 13 16.09 Fair CLR 21.4 6.7 39% 76.15 0.0
04 10:55 S 11 16.09 Fair CLR 20.1 6.5 41% 76.15 0.0
04 10:35 SW 9 16.09 Fair CLR 20.6 6.9 41% 76.15 0.0
04 10:15 S 13 16.09 Fair CLR 19.3 6.1 42% 76.15 0.0
04 09:55 SW 7 16.09 Fair CLR 18.1 6.2 46% 76.17 0.0
04 09:35 S 6 16.09 Fair CLR 16.6 6.4 51% 76.2 0.0
04 09:15 S 6 16.09 Fair CLR 15.5 6.5 55% 76.2 0.0
04 08:55 S 7 16.09 Fair CLR 14.2 5.7 57% 76.2 0.0
04 08:35 SW 7 16.09 Fair CLR 13.1 5.6 61% 76.2 0.0
04 08:15 S 7 16.09 Fair CLR 12.2 5.4 63% 76.2 0.0
04 07:55 S 7 16.09 Fair CLR 11.3 5.4 11.3 7.2 67% 76.23 0.0
04 07:35 Calm 16.09 Partly Cloudy SCT110 10.2 6.2 76% 76.23 0.0
04 07:15 Calm 16.09 Mostly Cloudy BKN110 9.5 5.4 76% 76.23 0.0
04 06:55 Calm 16.09 Mostly Cloudy BKN110 8.5 4.9 78% 76.2 0.0
04 06:35 SW 6 16.09 Partly Cloudy SCT110 7.6 4.3 80% 76.2 0.0
04 06:15 SW 7 16.09 Partly Cloudy SCT085 SCT120 8 4.1 77% 7 76.2 0.0
04 05:55 Calm 16.09 Mostly Cloudy SCT085 BKN120 8 4.2 77% 76.2 0.0
04 05:35 Calm 16.09 Mostly Cloudy BKN120 8.8 4.3 74% 76.2 0.0
04 05:15 Calm 16.09 Mostly Cloudy SCT080 BKN100 9.3 4.7 73% 76.17 0.0
04 04:55 Calm 16.09 Overcast BKN080 BKN100 OVC120 9.3 4.9 74% 76.17 0.0
04 04:35 Calm 16.09 Overcast OVC080 9.6 4.5 71% 76.23 0.0
04 04:15 SW 6 16.09 Overcast SCT080 OVC100 8.7 6.1 84% 76.2 0.0
04 03:55 Calm 16.09 Overcast OVC090 8.7 6.2 84% 76.23 0.0
04 03:35 Calm 16.09 Overcast OVC090 8.9 4.9 76% 76.23 0.0
04 03:15 Calm 16.09 Overcast OVC100 8.5 5 79% 76.23 0.0
04 02:55 Calm 16.09 Overcast OVC100 7.8 6.1 89% 76.23 0.0
04 02:35 Calm 16.09 Overcast OVC110 7.9 5.5 85% 76.23 0.0
04 02:15 Calm 16.09 Overcast OVC120 8.7 4.7 76% 76.23 0.0
04 01:55 Calm 16.09 Overcast OVC120 8.8 4 14.1 6.5 72% 76.2 0.0
04 01:35 Calm 16.09 Overcast OVC120 8.7 3.5 70% 76.2 0.0
04 01:15 Calm 16.09 Mostly Cloudy BKN110 8.4 3.5 72% 76.23 0.0
04 00:55 Calm 16.09 Partly Cloudy SCT110 8.2 3.2 71% 76.2 0.0
04 00:35 Calm 16.09 Fair CLR 7.9 3.5 74% 76.23 0.0
04 00:15 Calm 16.09 Partly Cloudy SCT110 7.7 3.4 74% 76.2 0.0
03 23:55 Calm 16.09 Partly Cloudy SCT120 8 3.1 71% 76.23 0.0
03 23:35 Calm 16.09 Fair CLR 6.9 3.3 78% 76.2 0.0
03 23:15 Calm 16.09 Fair CLR 7.2 3.5 78% 76.2 0.0
03 22:55 Calm 16.09 Fair CLR 8 3.2 72% 76.23 0.0
03 22:35 Calm 16.09 Fair CLR 10.3 3 61% 76.2 0.0
03 22:15 Calm 16.09 Fair CLR 8.9 3.2 68% 76.2 0.0
03 21:55 Calm 16.09 Fair CLR 10.9 3 58% 76.17 0.0
03 21:35 Calm 16.09 Fair CLR 10.6 3.1 60% 76.15 0.0
03 21:15 Calm 16.09 Fair CLR 11.5 2.4 54% 76.15 0.0
03 20:55 Calm 16.09 Fair CLR 12.1 3 54% 76.15 0.0
03 20:35 Calm 16.09 Fair CLR 12.7 2.7 51% 76.15 0.0
03 20:15 Calm 16.09 Fair CLR 13.5 2 46% 76.15 0.0
03 19:55 Calm 16.09 Fair CLR 14.1 2.5 18.9 14.1 46% 76.12 0.0
03 19:35 Calm 16.09 Fair CLR 14.8 2.2 43% 76.12 0.0
03 19:15 SW 6 16.09 Fair CLR 16.1 1.8 38% 76.12 0.0
03 18:55 SW 6 16.09 Fair CLR 17.5 0.1 31% 76.12 0.0
03 18:35 SW 6 16.09 Fair CLR 18.4 0.2 29% 76.12 0.0
03 18:15 S 7 16.09 Fair CLR 18.5 0.1 29% 76.12 0.0
03 17:55 SW 7 16.09 Fair CLR 18.8 0.5 29% 76.15 0.0
03 17:35 W 6 16.09 Fair CLR 18.6 -0.5 28% 76.15 0.0
03 17:15 SW 9 16.09 Fair CLR 18.6 0.1 29% 76.15 0.0
03 16:55 NW 6 16.09 Fair CLR 18.4 -0.5 28% 76.15 0.0
03 16:35 SW 7 16.09 Fair CLR 18.1 -0.4 29% 76.17 0.0
03 16:15 Calm 16.09 Fair CLR 18.3 -0.3 29% 76.17 0.0
03 15:55 SW 6 G 26 16.09 Fair CLR 18 0 30% 76.2 0.0
03 15:35 W 9 16.09 Fair CLR 17.8 -0.1 30% 76.23 0.0
03 14:55 NW 6 16.09 Fair CLR 17.1 -0.3 31% 76.28 0.0
03 14:35 SW 9 16.09 Fair CLR 17.3 0.6 33% 76.28 0.0
03 14:15 W 7 16.09 Fair CLR 16.4 -0.2 33% 76.3 0.0
03 13:55 S 11 16.09 Fair CLR 16.4 0.3 16.4 8.4 34% 76.3 0.0
03 13:35 N 9 16.09 Fair CLR 16.1 0.2 34% 76.33 0.0
03 13:15 W 7 16.09 Fair CLR 16.3 0.2 34% 76.33 0.0
03 12:55 SW 11 16.09 Fair CLR 15.1 -0.3 35% 76.35 0.0
03 12:35 N 7 16.09 Fair CLR 14.9 -0.1 36% 76.38 0.0
03 12:15 W 9 16.09 Fair CLR 14.5 -0.3 37% 76.4 0.0
03 11:55 NW 9 16.09 Fair CLR 14.3 -0.5 36% 76.4 0.0
03 11:35 SW 13 16.09 Fair CLR 14.1 -0.3 37% 76.43 0.0
03 11:15 N 11 16.09 Fair CLR 13.1 -0.7 39% 76.43 0.0
03 10:55 NE 7 16.09 Fair CLR 12.9 -0.7 39% 76.43 0.0
03 10:35 NW 7 16.09 Fair CLR 13.1 0.2 41% 76.43 0.0
03 10:15 N 9 16.09 Fair CLR 11.8 0.4 46% 76.43 0.0
03 09:55 N 11 16.09 Fair CLR 11.9 0.2 45% 76.43 0.0
03 09:35 N 15 16.09 Fair CLR 11.9 0.8 47% 76.43 0.0
03 09:15 NW 9 16.09 Fair CLR 11.7 0.4 46% 76.4 0.0
03 08:55 N 6 16.09 Fair CLR 11 0.7 49% 76.4 0.0
03 08:35 N 7 16.09 Fair CLR 10.1 1.2 54% 76.38 0.0
03 08:15 Calm 16.09 Fair CLR 9.6 1.7 58% 76.38 0.0
03 07:55 Calm 16.09 Fair CLR 8.2 2.3 10 2.7 67% 76.35 0.0
03 07:35 Calm 16.09 Fair CLR 5.5 3.7 88% 76.35 0.0
03 07:15 Calm 16.09 Fair CLR 4.1 2.6 90% 76.35 0.0
03 06:55 Calm 16.09 Fair CLR 3 2.1 94% 76.3 0.0
03 06:35 Calm 16.09 Fair CLR 3.1 2 93% 76.28 0.0
03 06:15 Calm 16.09 Fair CLR 3.8 2 88% 76.23 0.0
03 05:55 Calm 16.09 Fair CLR 3.4 2 91% 76.23 0.0
03 05:35 Calm 16.09 Fair CLR 4.7 2.6 86% 76.2 0.0
Date Time (edt) Wind (kph) Vis. (km) Weather Sky Cond. Air Dwpt Max. Min. Relative Humidity Wind Chill (°C) Heat Index (°C) altimeter (cm) sea level (mb) 1 hr 3 hr 6 hr
6 hour
Temperature (ºC) Pressure Precipitation (cm)